createdAt,value
2017-08-04T00:00:00.618Z,72.26
2017-08-04T00:02:28.096Z,73.20
2017-08-04T00:04:55.555Z,73.81
2017-08-04T00:07:22.998Z,72.99
2017-08-04T00:09:50.502Z,71.87
2017-08-04T00:12:17.958Z,71.90
2017-08-04T00:14:45.424Z,71.83
2017-08-04T00:17:12.878Z,73.04
2017-08-04T00:19:40.353Z,73.29
2017-08-04T00:22:07.825Z,73.70
2017-08-04T00:24:35.273Z,72.83
2017-08-04T00:27:02.858Z,72.76
2017-08-04T00:29:30.320Z,73.66
2017-08-04T00:31:57.770Z,74.21
2017-08-04T00:34:25.229Z,74.60
2017-08-04T00:36:52.745Z,74.62
2017-08-04T00:39:20.220Z,73.89
2017-08-04T00:41:47.662Z,73.88
2017-08-04T00:44:15.150Z,74.91
2017-08-04T00:46:42.601Z,74.22
2017-08-04T00:49:10.173Z,74.98
2017-08-04T00:51:37.842Z,74.03
2017-08-04T00:54:05.305Z,74.17
2017-08-04T00:56:32.758Z,75.43
2017-08-04T00:59:00.438Z,75.01
2017-08-04T01:01:27.885Z,75.72
2017-08-04T01:03:55.345Z,75.00
2017-08-04T01:06:22.969Z,74.24
2017-08-04T01:08:50.416Z,74.88
2017-08-04T01:11:17.866Z,74.57
2017-08-04T01:13:45.338Z,74.18
2017-08-04T01:16:12.808Z,74.56
2017-08-04T01:18:40.256Z,74.24
2017-08-04T01:21:07.725Z,72.92
2017-08-04T01:23:35.197Z,74.11
2017-08-04T01:26:02.799Z,73.95
2017-08-04T01:28:30.260Z,73.32
2017-08-04T01:30:57.707Z,74.01
2017-08-04T01:33:25.190Z,74.40
2017-08-04T01:35:52.636Z,74.56
2017-08-04T01:38:20.082Z,74.57
2017-08-04T01:40:47.553Z,74.31
2017-08-04T01:43:14.996Z,74.56
2017-08-04T01:45:42.461Z,74.40
2017-08-04T01:48:09.934Z,75.25
2017-08-04T01:50:37.377Z,76.33
2017-08-04T01:53:04.849Z,74.99
2017-08-04T01:55:32.300Z,75.35
2017-08-04T01:57:59.768Z,75.96
2017-08-04T02:00:27.227Z,76.31
2017-08-04T02:02:54.706Z,74.42
2017-08-04T02:05:22.214Z,74.74
2017-08-04T02:07:49.709Z,75.32
2017-08-04T02:10:17.157Z,76.09
2017-08-04T02:12:44.601Z,75.17
2017-08-04T02:15:12.065Z,75.42
2017-08-04T02:17:39.512Z,75.83
2017-08-04T02:20:07.232Z,75.56
2017-08-04T02:22:34.685Z,76.05
2017-08-04T02:25:02.129Z,77.02
2017-08-04T02:27:29.596Z,77.11
2017-08-04T02:29:57.070Z,77.89
2017-08-04T02:32:24.509Z,77.97
2017-08-04T02:34:52.006Z,77.94
2017-08-04T02:37:19.449Z,77.95
2017-08-04T02:39:46.891Z,77.72
2017-08-04T02:42:14.355Z,77.97
2017-08-04T02:44:41.809Z,77.99
2017-08-04T02:49:36.274Z,79.02
2017-08-04T02:52:03.722Z,79.29
2017-08-04T02:54:31.202Z,79.47
2017-08-04T02:56:58.646Z,79.54
2017-08-04T02:59:26.136Z,79.90
2017-08-04T03:01:53.587Z,80.60
2017-08-04T03:04:21.043Z,79.88
2017-08-04T03:06:48.507Z,78.99
2017-08-04T03:09:15.971Z,78.44
2017-08-04T03:11:43.440Z,78.19
2017-08-04T03:14:10.883Z,77.20
2017-08-04T03:16:38.346Z,76.04
2017-08-04T03:19:05.822Z,77.16
2017-08-04T03:21:33.266Z,77.53
2017-08-04T03:24:00.715Z,75.28
2017-08-04T03:26:28.195Z,74.24
2017-08-04T03:28:55.650Z,74.43
2017-08-04T03:31:23.261Z,73.64
2017-08-04T03:33:50.717Z,77.24
2017-08-04T03:36:18.169Z,78.62
2017-08-04T03:38:45.638Z,78.52
2017-08-04T03:41:13.116Z,78.54
2017-08-04T03:43:40.634Z,78.81
2017-08-04T03:46:08.084Z,78.76
2017-08-04T03:48:35.537Z,78.89
2017-08-04T03:51:03.250Z,79.06
2017-08-04T03:53:30.701Z,78.64
2017-08-04T03:55:58.146Z,78.99
2017-08-04T03:58:25.622Z,79.34
2017-08-04T04:00:53.074Z,79.02
2017-08-04T04:03:20.553Z,78.74
2017-08-04T04:05:48.040Z,78.67
2017-08-04T04:08:15.513Z,79.17
2017-08-04T04:10:42.960Z,79.55
2017-08-04T04:13:10.442Z,80.04
2017-08-04T04:15:37.897Z,78.82
2017-08-04T04:18:05.377Z,78.67
2017-08-04T04:20:32.846Z,78.62
2017-08-04T04:23:00.314Z,78.97
2017-08-04T04:25:27.773Z,77.95
2017-08-04T04:27:55.241Z,77.03
2017-08-04T04:30:22.702Z,78.61
2017-08-04T04:32:50.176Z,78.15
2017-08-04T04:35:17.624Z,78.09
2017-08-04T04:37:45.069Z,78.22
2017-08-04T04:40:12.532Z,78.05
2017-08-04T04:42:39.988Z,78.27
2017-08-04T04:45:07.737Z,78.15
2017-08-04T04:47:35.267Z,78.24
2017-08-04T04:50:02.724Z,78.11
2017-08-04T04:52:30.354Z,78.14
2017-08-04T04:54:57.800Z,78.03
2017-08-04T04:57:25.256Z,77.96
2017-08-04T04:59:53.058Z,78.07
2017-08-04T05:02:20.501Z,76.99
2017-08-04T05:04:47.948Z,77.49
2017-08-04T05:07:15.422Z,77.18
2017-08-04T05:09:42.873Z,77.40
2017-08-04T05:12:10.352Z,76.67
2017-08-04T05:14:37.901Z,77.57
2017-08-04T05:17:05.349Z,77.68
2017-08-04T05:19:32.821Z,77.46
2017-08-04T05:22:00.277Z,77.34
2017-08-04T05:24:27.744Z,77.28
2017-08-04T05:26:55.191Z,77.28
2017-08-04T05:29:22.880Z,76.72
2017-08-04T05:31:50.340Z,76.65
2017-08-04T05:34:17.794Z,76.77
2017-08-04T05:36:45.269Z,77.16
2017-08-04T05:39:12.720Z,76.04
2017-08-04T05:41:40.185Z,76.69
2017-08-04T05:44:07.686Z,76.38
2017-08-04T05:46:35.179Z,76.80
2017-08-04T05:49:02.652Z,77.04
2017-08-04T05:51:30.123Z,76.42
2017-08-04T05:53:57.585Z,76.27
2017-08-04T05:56:25.042Z,76.03
2017-08-04T05:58:52.515Z,75.90
2017-08-04T06:01:19.977Z,75.59
2017-08-04T06:03:47.445Z,76.22
2017-08-04T06:06:14.901Z,75.61
2017-08-04T06:08:42.372Z,75.71
2017-08-04T06:11:09.842Z,75.91
2017-08-04T06:13:37.285Z,75.91
2017-08-04T06:16:04.769Z,76.39
2017-08-04T06:18:32.223Z,75.11
2017-08-04T06:20:59.681Z,74.30
2017-08-04T06:23:27.145Z,74.42
2017-08-04T06:25:54.617Z,74.37
2017-08-04T06:28:22.101Z,74.22
2017-08-04T06:30:49.556Z,74.07
2017-08-04T06:33:17.141Z,73.90
2017-08-04T06:35:44.590Z,73.74
2017-08-04T06:38:12.051Z,73.37
2017-08-04T06:40:39.517Z,73.34
2017-08-04T06:43:06.964Z,73.75
2017-08-04T06:45:34.405Z,73.34
2017-08-04T06:48:01.891Z,72.85
2017-08-04T06:50:41.093Z,73.06
2017-08-04T06:53:20.233Z,73.98
2017-08-04T06:56:08.187Z,73.05
2017-08-04T06:58:35.975Z,73.25
2017-08-04T07:01:03.426Z,71.67
2017-08-04T07:03:30.873Z,72.70
2017-08-04T07:05:58.340Z,73.11
2017-08-04T07:08:25.781Z,73.70
2017-08-04T07:10:53.255Z,72.45
2017-08-04T07:13:20.705Z,73.64
2017-08-04T07:15:48.172Z,73.66
2017-08-04T07:18:15.742Z,72.16
2017-08-04T07:20:43.201Z,71.49
2017-08-04T07:23:10.652Z,72.16
2017-08-04T07:25:38.124Z,71.41
2017-08-04T07:28:05.573Z,71.15
2017-08-04T07:30:33.259Z,69.26
2017-08-04T07:33:00.729Z,69.86
2017-08-04T07:35:28.169Z,69.22
2017-08-04T07:37:55.658Z,70.02
2017-08-04T07:40:23.111Z,70.13
2017-08-04T07:42:50.686Z,69.63
2017-08-04T07:45:18.132Z,68.64
2017-08-04T07:47:45.579Z,67.93
2017-08-04T07:50:13.052Z,66.06
2017-08-04T07:52:40.501Z,67.42
2017-08-04T07:55:07.973Z,67.53
2017-08-04T07:57:35.422Z,66.49
2017-08-04T08:00:03.087Z,64.82
2017-08-04T08:02:30.536Z,65.09
2017-08-04T08:04:57.980Z,64.34
2017-08-04T08:07:26.102Z,64.64
2017-08-04T08:09:53.569Z,63.54
2017-08-04T08:12:21.013Z,61.53
2017-08-04T08:14:48.490Z,62.31
2017-08-04T08:17:15.929Z,62.35
2017-08-04T08:19:43.696Z,61.02
2017-08-04T08:22:11.150Z,60.70
2017-08-04T08:24:38.601Z,60.83
2017-08-04T08:27:06.070Z,61.78
2017-08-04T08:29:33.621Z,62.31
2017-08-04T08:32:01.307Z,61.20
2017-08-04T08:34:28.753Z,62.73
2017-08-04T08:36:56.197Z,62.72
2017-08-04T08:39:23.658Z,63.20
2017-08-04T08:41:51.112Z,62.20
2017-08-04T08:44:18.562Z,62.57
2017-08-04T08:46:46.033Z,62.97
2017-08-04T08:49:13.497Z,62.94
2017-08-04T08:51:40.929Z,62.43
2017-08-04T08:54:08.741Z,62.52
2017-08-04T08:56:36.185Z,63.02
2017-08-04T08:59:03.625Z,62.60
2017-08-04T09:01:31.115Z,64.68
2017-08-04T09:03:58.571Z,61.73
2017-08-04T09:06:26.018Z,60.38
2017-08-04T09:08:53.646Z,59.66
2017-08-04T09:11:21.100Z,61.12
2017-08-04T09:13:48.545Z,61.66
2017-08-04T09:16:16.024Z,58.94
2017-08-04T09:18:43.507Z,58.77
2017-08-04T09:21:10.967Z,59.69
2017-08-04T09:23:38.453Z,58.57
2017-08-04T09:26:05.930Z,57.72
2017-08-04T09:28:33.427Z,57.32
2017-08-04T09:31:00.886Z,56.59
2017-08-04T09:33:28.333Z,56.11
2017-08-04T09:35:55.801Z,54.51
2017-08-04T09:38:23.638Z,55.66
2017-08-04T09:40:51.085Z,54.18
2017-08-04T09:43:18.530Z,55.93
2017-08-04T09:45:46.009Z,55.97
2017-08-04T09:48:13.489Z,54.64
2017-08-04T09:50:40.970Z,55.57
2017-08-04T09:53:08.421Z,53.26
2017-08-04T09:55:35.884Z,53.87
2017-08-04T09:58:03.368Z,55.17
2017-08-04T10:00:30.824Z,51.71
2017-08-04T10:02:58.277Z,52.20
2017-08-04T10:05:26.006Z,52.27
2017-08-04T10:07:53.456Z,54.93
2017-08-04T10:10:20.905Z,53.36
2017-08-04T10:12:48.377Z,55.74
2017-08-04T10:15:15.840Z,56.19
2017-08-04T10:17:43.281Z,54.89
2017-08-04T10:20:11.064Z,54.31
2017-08-04T10:22:38.515Z,51.82
2017-08-04T10:25:05.979Z,51.32
2017-08-04T10:27:33.449Z,53.52
2017-08-04T10:30:00.890Z,54.96
2017-08-04T10:32:28.359Z,50.25
2017-08-04T10:34:55.812Z,47.95
2017-08-04T10:37:23.301Z,47.36
2017-08-04T10:39:50.748Z,47.57
2017-08-04T10:42:18.186Z,47.34
2017-08-04T10:44:45.651Z,51.35
2017-08-04T10:47:13.101Z,48.37
2017-08-04T10:49:40.590Z,50.58
2017-08-04T10:52:08.037Z,49.99
2017-08-04T10:54:35.497Z,49.93
2017-08-04T10:57:02.962Z,49.12
2017-08-04T10:59:30.410Z,50.75
2017-08-04T11:01:57.893Z,52.74
2017-08-04T11:04:25.345Z,47.52
2017-08-04T11:06:52.795Z,48.40
2017-08-04T11:09:20.261Z,49.32
2017-08-04T11:11:47.707Z,48.58
2017-08-04T11:14:15.172Z,46.10
2017-08-04T11:16:42.610Z,47.01
2017-08-04T11:19:10.084Z,48.49
2017-08-04T11:21:37.526Z,48.13
2017-08-04T11:24:04.978Z,52.99
2017-08-04T11:26:32.445Z,54.71
2017-08-04T11:28:59.892Z,53.01
2017-08-04T11:31:27.333Z,53.55
2017-08-04T11:33:54.792Z,50.35
2017-08-04T11:36:22.236Z,49.60
2017-08-04T11:38:50.101Z,52.03
2017-08-04T11:41:17.549Z,46.30
2017-08-04T11:43:44.992Z,50.22
2017-08-04T11:46:12.461Z,51.54
2017-08-04T11:48:39.905Z,47.82
2017-08-04T11:51:07.388Z,47.55
2017-08-04T11:53:34.828Z,43.41
2017-08-04T11:56:02.297Z,43.07
2017-08-04T11:58:30.078Z,44.18
2017-08-04T12:00:57.526Z,42.74
2017-08-04T12:03:24.975Z,41.54
2017-08-04T12:05:52.441Z,46.92
2017-08-04T12:08:19.881Z,46.19
2017-08-04T12:10:47.348Z,41.74
2017-08-04T12:13:14.791Z,41.25
2017-08-04T12:15:42.259Z,40.55
2017-08-04T12:18:09.710Z,38.81
2017-08-04T12:20:37.157Z,36.79
2017-08-04T12:23:04.630Z,35.42
2017-08-04T12:25:32.085Z,41.74
2017-08-04T12:27:59.919Z,35.80
2017-08-04T12:30:27.376Z,34.34
2017-08-04T12:32:54.822Z,39.60
2017-08-04T12:35:22.289Z,36.71
2017-08-04T12:37:49.756Z,41.75
2017-08-04T12:40:17.545Z,39.60
2017-08-04T12:42:45.208Z,41.06
2017-08-04T12:45:12.666Z,39.19
2017-08-04T12:47:40.113Z,37.23
2017-08-04T12:50:07.582Z,38.46
2017-08-04T12:52:35.081Z,38.93
2017-08-04T12:55:02.527Z,39.10
2017-08-04T12:57:29.973Z,35.85
2017-08-04T12:59:57.447Z,35.22
2017-08-04T13:02:24.920Z,40.45
2017-08-04T13:04:52.409Z,46.42
2017-08-04T13:07:19.861Z,40.67
2017-08-04T13:09:47.308Z,40.30
2017-08-04T13:12:14.793Z,42.44
2017-08-04T13:14:42.236Z,41.82
2017-08-04T13:17:09.680Z,41.50
2017-08-04T13:19:37.487Z,43.41
2017-08-04T13:22:04.938Z,43.94
2017-08-04T13:24:32.393Z,37.33
2017-08-04T13:26:59.856Z,42.13
2017-08-04T13:29:27.305Z,40.83
2017-08-04T13:31:54.745Z,41.79
2017-08-04T13:34:22.226Z,37.16
2017-08-04T13:36:49.669Z,36.39
2017-08-04T13:39:17.119Z,35.05
2017-08-04T13:41:44.597Z,36.31
2017-08-04T13:44:12.044Z,41.65
2017-08-04T13:46:39.494Z,38.15
2017-08-04T13:49:06.970Z,37.05
2017-08-04T13:51:34.630Z,40.75
2017-08-04T13:54:02.083Z,42.84
2017-08-04T13:56:29.530Z,41.58
2017-08-04T13:58:57.396Z,38.66
2017-08-04T14:01:24.836Z,40.04
2017-08-04T14:03:52.276Z,43.20
2017-08-04T14:06:19.737Z,39.21
2017-08-04T14:08:47.206Z,39.64
2017-08-04T14:11:14.669Z,43.55
2017-08-04T14:13:42.157Z,39.64
2017-08-04T14:16:09.592Z,38.81
2017-08-04T14:18:37.050Z,42.59
2017-08-04T14:21:04.528Z,44.90
2017-08-04T14:23:31.967Z,40.79
2017-08-04T14:25:59.437Z,39.53
2017-08-04T14:28:26.881Z,42.99
2017-08-04T14:30:54.458Z,45.25
2017-08-04T14:33:21.904Z,46.13
2017-08-04T14:35:49.347Z,48.11
2017-08-04T14:38:16.809Z,43.79
2017-08-04T14:40:44.266Z,42.18
2017-08-04T14:43:11.702Z,40.09
2017-08-04T14:45:39.168Z,39.10
2017-08-04T14:48:06.617Z,45.23
2017-08-04T14:50:34.084Z,41.04
2017-08-04T14:53:01.531Z,38.05
2017-08-04T14:55:28.996Z,39.88
2017-08-04T14:57:56.452Z,40.53
2017-08-04T15:00:23.906Z,38.74
2017-08-04T15:02:51.553Z,38.89
2017-08-04T15:05:19.009Z,35.25
2017-08-04T15:07:46.476Z,35.81
2017-08-04T15:10:13.950Z,37.78
2017-08-04T15:12:41.418Z,38.83
2017-08-04T15:15:08.878Z,40.38
2017-08-04T15:17:36.346Z,38.01
2017-08-04T15:20:03.795Z,37.83
2017-08-04T15:22:31.264Z,38.75
2017-08-04T15:24:58.718Z,40.27
2017-08-04T15:27:26.214Z,37.54
2017-08-04T15:29:53.662Z,38.84
2017-08-04T15:32:21.142Z,37.56
2017-08-04T15:34:48.585Z,37.22
2017-08-04T15:37:16.041Z,38.69
2017-08-04T15:39:43.502Z,37.39
2017-08-04T15:42:11.001Z,38.34
2017-08-04T15:44:38.457Z,42.78
2017-08-04T15:47:05.928Z,41.71
2017-08-04T15:49:33.377Z,40.79
2017-08-04T15:52:00.844Z,38.44
2017-08-04T15:54:28.299Z,35.96
2017-08-04T15:56:55.892Z,40.74
2017-08-04T15:59:23.334Z,36.59
2017-08-04T16:01:50.787Z,40.43
2017-08-04T16:04:18.274Z,38.19
2017-08-04T16:06:45.738Z,39.74
2017-08-04T16:09:13.212Z,38.57
2017-08-04T16:11:40.664Z,38.37
2017-08-04T16:14:08.135Z,41.20
2017-08-04T16:16:35.577Z,40.96
2017-08-04T16:19:03.064Z,42.21
2017-08-04T16:21:30.505Z,43.41
2017-08-04T16:23:57.956Z,44.64
2017-08-04T16:26:25.451Z,39.68
2017-08-04T16:28:52.893Z,39.56
2017-08-04T16:31:20.337Z,39.67
2017-08-04T16:33:47.814Z,40.22
2017-08-04T16:36:15.289Z,42.32
2017-08-04T16:38:42.756Z,39.20
2017-08-04T16:41:10.202Z,40.50
2017-08-04T16:43:37.885Z,40.12
2017-08-04T16:46:05.327Z,42.44
2017-08-04T16:48:32.777Z,43.10
2017-08-04T16:51:00.359Z,43.92
2017-08-04T16:53:27.817Z,43.52
2017-08-04T16:55:55.258Z,43.96
2017-08-04T16:58:22.731Z,45.05
2017-08-04T17:00:50.173Z,42.48
2017-08-04T17:03:17.640Z,42.33
2017-08-04T17:05:45.120Z,42.03
2017-08-04T17:08:12.573Z,42.20
2017-08-04T17:10:40.271Z,41.01
2017-08-04T17:13:07.729Z,42.42
2017-08-04T17:15:35.174Z,41.89
2017-08-04T17:18:02.658Z,41.93
2017-08-04T17:20:30.104Z,40.85
2017-08-04T17:22:57.918Z,41.84
2017-08-04T17:25:25.385Z,45.56
2017-08-04T17:27:52.877Z,46.39
2017-08-04T17:30:20.322Z,47.72
2017-08-04T17:32:47.791Z,50.68
2017-08-04T17:35:15.253Z,49.54
2017-08-04T17:37:42.706Z,47.17
2017-08-04T17:40:10.174Z,48.30
2017-08-04T17:42:37.625Z,46.14
2017-08-04T17:45:05.098Z,46.71
2017-08-04T17:47:32.556Z,48.84
2017-08-04T17:50:00.032Z,50.25
2017-08-04T17:52:27.481Z,51.42
2017-08-04T17:54:54.929Z,51.42
2017-08-04T17:57:22.401Z,54.82
2017-08-04T17:59:49.843Z,54.46
2017-08-04T18:02:28.909Z,52.74
2017-08-04T18:04:56.369Z,55.46
2017-08-04T18:07:23.817Z,54.96
2017-08-04T18:09:51.581Z,54.70
2017-08-04T18:12:19.032Z,55.00
2017-08-04T18:14:46.481Z,54.15
2017-08-04T18:17:13.949Z,54.87
2017-08-04T18:19:41.401Z,54.82
2017-08-04T18:22:09.198Z,54.54
2017-08-04T18:24:36.642Z,54.87
2017-08-04T18:27:04.086Z,55.29
2017-08-04T18:29:31.551Z,55.62
2017-08-04T18:31:59.048Z,55.86
2017-08-04T18:34:26.516Z,55.92
2017-08-04T18:36:53.975Z,56.05
2017-08-04T18:39:21.717Z,56.15
2017-08-04T18:41:49.163Z,56.90
2017-08-04T18:44:16.621Z,56.98
2017-08-04T18:46:44.114Z,56.41
2017-08-04T18:49:11.573Z,56.92
2017-08-04T18:51:39.012Z,56.40
2017-08-04T18:54:06.500Z,57.69
2017-08-04T18:56:33.969Z,57.12
2017-08-04T18:59:01.437Z,56.65
2017-08-04T19:01:28.896Z,56.75
2017-08-04T19:03:56.371Z,57.50
2017-08-04T19:06:23.829Z,57.19
2017-08-04T19:08:51.296Z,57.50
2017-08-04T19:11:18.749Z,57.32
2017-08-04T19:13:46.225Z,57.60
2017-08-04T19:16:13.701Z,57.90
2017-08-04T19:18:41.154Z,58.37
2017-08-04T19:21:08.633Z,58.33
2017-08-04T19:23:36.077Z,58.78
2017-08-04T19:26:03.541Z,58.68
2017-08-04T19:28:31.005Z,59.22
2017-08-04T19:30:58.449Z,59.10
2017-08-04T19:33:25.944Z,59.86
2017-08-04T19:35:53.395Z,60.29
2017-08-04T19:38:20.842Z,60.98
2017-08-04T19:40:48.329Z,61.25
2017-08-04T19:43:15.772Z,60.72
2017-08-04T19:45:43.359Z,61.21
2017-08-04T19:48:10.804Z,61.14
2017-08-04T19:50:38.249Z,60.88
2017-08-04T19:53:05.721Z,60.08
2017-08-04T19:55:33.166Z,58.76
2017-08-04T19:58:00.642Z,60.10
2017-08-04T20:00:28.112Z,60.51
2017-08-04T20:02:55.561Z,61.00
2017-08-04T20:05:23.133Z,61.29
2017-08-04T20:07:50.578Z,62.70
2017-08-04T20:10:18.037Z,62.48
2017-08-04T20:12:45.513Z,63.32
2017-08-04T20:15:13.192Z,62.82
2017-08-04T20:17:40.650Z,63.32
2017-08-04T20:20:08.102Z,62.81
2017-08-04T20:22:35.584Z,63.10
2017-08-04T20:25:03.040Z,63.02
2017-08-04T20:27:30.495Z,63.25
2017-08-04T20:29:57.976Z,64.14
2017-08-04T20:32:25.426Z,64.45
2017-08-04T20:34:52.909Z,64.69
2017-08-04T20:37:20.360Z,64.56
2017-08-04T20:39:47.824Z,65.35
2017-08-04T20:42:15.275Z,64.79
2017-08-04T20:44:42.749Z,65.29
2017-08-04T20:47:10.364Z,64.48
2017-08-04T20:49:38.678Z,64.38
2017-08-04T20:52:06.140Z,65.00
2017-08-04T20:54:33.614Z,64.78
2017-08-04T20:57:01.077Z,65.25
2017-08-04T20:59:28.549Z,65.53
2017-08-04T21:01:55.996Z,65.55
2017-08-04T21:04:23.710Z,65.36
2017-08-04T21:06:51.170Z,65.64
2017-08-04T21:09:18.613Z,65.30
2017-08-04T21:11:46.265Z,65.58
2017-08-04T21:14:13.718Z,65.78
2017-08-04T21:16:41.157Z,65.80
2017-08-04T21:19:08.626Z,65.83
2017-08-04T21:21:36.087Z,66.47
2017-08-04T21:24:03.658Z,66.82
2017-08-04T21:26:31.110Z,67.26
2017-08-04T21:28:58.554Z,67.36
2017-08-04T21:31:26.034Z,67.76
2017-08-04T21:33:53.504Z,67.44
2017-08-04T21:36:20.948Z,67.34
2017-08-04T21:38:48.421Z,67.23
2017-08-04T21:41:15.894Z,67.80
2017-08-04T21:43:43.338Z,68.07
2017-08-04T21:46:10.781Z,67.81
2017-08-04T21:48:38.270Z,67.38
2017-08-04T21:51:05.740Z,67.65
2017-08-04T21:53:33.192Z,68.02
2017-08-04T21:56:00.974Z,68.17
2017-08-04T21:58:28.424Z,68.00
2017-08-04T22:00:55.865Z,68.55
2017-08-04T22:03:23.363Z,68.15
2017-08-04T22:05:50.810Z,67.61
2017-08-04T22:08:18.283Z,67.87
2017-08-04T22:10:45.729Z,67.53
2017-08-04T22:13:13.206Z,67.60
2017-08-04T22:15:41.010Z,67.84
2017-08-04T22:18:08.457Z,67.55
2017-08-04T22:20:35.905Z,68.34
2017-08-04T22:23:03.390Z,68.29
2017-08-04T22:25:30.852Z,68.47
2017-08-04T22:27:58.421Z,68.58
2017-08-04T22:30:25.866Z,68.70
2017-08-04T22:32:53.305Z,68.56
2017-08-04T22:35:20.791Z,68.67
2017-08-04T22:37:48.247Z,68.65
2017-08-04T22:40:15.690Z,67.94
2017-08-04T22:42:43.158Z,68.05
2017-08-04T22:45:10.634Z,68.33
2017-08-04T22:47:38.086Z,68.19
2017-08-04T22:50:05.654Z,69.09
2017-08-04T22:52:33.119Z,68.74
2017-08-04T22:55:00.574Z,68.76
2017-08-04T22:57:28.045Z,68.55
2017-08-04T22:59:55.518Z,67.84
2017-08-04T23:02:22.963Z,67.95
2017-08-04T23:04:50.770Z,66.88
2017-08-04T23:07:18.214Z,66.36
2017-08-04T23:09:45.658Z,66.41
2017-08-04T23:12:13.132Z,66.18
2017-08-04T23:14:40.614Z,66.18
2017-08-04T23:17:08.065Z,65.62
2017-08-04T23:19:35.537Z,66.64
2017-08-04T23:22:03.025Z,66.35
2017-08-04T23:24:30.465Z,66.00
2017-08-04T23:26:57.932Z,66.19
2017-08-04T23:29:25.404Z,67.16
2017-08-04T23:31:52.882Z,66.96
2017-08-04T23:34:20.337Z,67.59
2017-08-04T23:36:47.801Z,67.80
2017-08-04T23:39:15.266Z,68.23
2017-08-04T23:41:42.733Z,67.83
2017-08-04T23:44:10.397Z,68.59
2017-08-04T23:46:37.847Z,68.63
2017-08-04T23:49:05.294Z,68.85
2017-08-04T23:51:32.766Z,68.95
2017-08-04T23:54:00.212Z,69.20
2017-08-04T23:56:27.682Z,69.68
2017-08-04T23:58:55.125Z,69.62
